createdAt,value
2019-04-25T00:01:36.536Z,77.45
2019-04-25T00:04:25.387Z,78.07
2019-04-25T00:07:12.942Z,78.55
2019-04-25T00:16:07.824Z,78.98
2019-04-25T00:18:55.339Z,78.76
2019-04-25T00:22:02.677Z,78.17
2019-04-25T00:25:15.951Z,78.73
2019-04-25T00:28:01.814Z,78.51
2019-04-25T00:30:52.291Z,79.26
2019-04-25T00:33:41.336Z,78.96
2019-04-25T00:36:29.570Z,78.76
2019-04-25T00:39:17.053Z,78.40
2019-04-25T00:42:07.095Z,78.84
2019-04-25T00:44:53.588Z,78.19
2019-04-25T00:47:42.646Z,78.31
2019-04-25T00:53:41.806Z,78.52
2019-04-25T00:56:49.407Z,78.57
2019-04-25T00:59:55.866Z,78.08
2019-04-25T01:05:54.632Z,78.42
2019-04-25T01:08:44.235Z,78.69
2019-04-25T01:11:33.269Z,78.05
2019-04-25T01:14:21.872Z,77.82
2019-04-25T01:17:29.023Z,77.54
2019-04-25T01:23:25.758Z,77.07
2019-04-25T01:26:13.896Z,76.82
2019-04-25T01:29:03.721Z,76.34
2019-04-25T01:31:54.183Z,75.75
2019-04-25T01:35:00.402Z,75.73
2019-04-25T01:38:06.752Z,75.56
2019-04-25T01:41:14.622Z,75.48
2019-04-25T01:44:25.074Z,75.26
2019-04-25T01:50:07.865Z,74.74
2019-04-25T01:52:55.639Z,74.71
2019-04-25T01:55:53.823Z,74.27
2019-04-25T01:58:33.781Z,74.11
2019-04-25T02:01:21.675Z,73.83
2019-04-25T02:04:09.639Z,73.83
2019-04-25T02:06:51.483Z,73.12
2019-04-25T02:09:41.147Z,73.06
2019-04-25T02:15:33.321Z,73.65
2019-04-25T02:18:23.722Z,73.36
2019-04-25T02:21:08.124Z,73.26
2019-04-25T02:23:56.683Z,73.09
2019-04-25T02:27:06.363Z,72.77
2019-04-25T02:29:55.270Z,72.83
2019-04-25T02:32:44.190Z,72.52
2019-04-25T02:35:34.751Z,72.67
2019-04-25T02:38:17.006Z,72.25
2019-04-25T02:44:03.709Z,71.50
2019-04-25T02:47:08.451Z,70.56
2019-04-25T02:50:18.343Z,70.53
2019-04-25T02:53:24.702Z,70.71
2019-04-25T02:56:27.621Z,70.29
2019-04-25T02:59:06.542Z,69.10
2019-04-25T03:01:54.166Z,69.48
2019-04-25T03:04:44.198Z,69.13
2019-04-25T03:07:31.399Z,68.80
2019-04-25T03:10:26.813Z,68.61
2019-04-25T03:13:14.945Z,68.44
2019-04-25T03:19:34.237Z,67.48
2019-04-25T03:22:26.369Z,67.62
2019-04-25T03:25:16.433Z,67.41
2019-04-25T03:28:01.254Z,67.30
2019-04-25T03:30:49.215Z,67.03
2019-04-25T03:33:38.425Z,67.58
2019-04-25T03:36:26.685Z,67.47
2019-04-25T03:39:16.399Z,67.41
2019-04-25T03:42:05.134Z,67.16
2019-04-25T03:44:53.818Z,67.08
2019-04-25T03:47:43.245Z,67.12
2019-04-25T03:50:30.827Z,67.04
2019-04-25T03:53:18.361Z,67.04
2019-04-25T03:55:59.409Z,67.05
2019-04-25T03:58:55.645Z,67.07
2019-04-25T04:01:43.885Z,67.70
2019-04-25T04:04:33.516Z,66.66
2019-04-25T04:07:21.128Z,66.36
2019-04-25T04:10:08.636Z,66.22
2019-04-25T04:12:56.194Z,66.27
2019-04-25T04:15:43.711Z,66.41
2019-04-25T04:18:50.076Z,66.01
2019-04-25T04:21:56.848Z,66.13
2019-04-25T04:24:48.880Z,65.87
2019-04-25T04:27:36.379Z,66.34
2019-04-25T04:30:28.153Z,65.68
2019-04-25T04:33:25.783Z,65.94
2019-04-25T04:36:04.961Z,66.24
2019-04-25T04:41:49.475Z,65.77
2019-04-25T04:47:53.233Z,66.01
2019-04-25T04:50:40.852Z,65.22
2019-04-25T04:53:28.454Z,65.17
2019-04-25T04:56:16.577Z,65.14
2019-04-25T05:02:15.834Z,64.52
2019-04-25T05:11:06.542Z,63.71
2019-04-25T05:13:54.239Z,63.74
2019-04-25T05:16:43.238Z,64.03
2019-04-25T05:19:33.474Z,63.75
2019-04-25T05:22:24.346Z,62.52
2019-04-25T05:25:15.310Z,62.82
2019-04-25T05:28:03.523Z,62.65
2019-04-25T05:31:10.143Z,62.30
2019-04-25T05:33:59.993Z,62.17
2019-04-25T05:36:47.480Z,61.66
2019-04-25T05:39:34.975Z,61.82
2019-04-25T05:42:44.969Z,61.98
2019-04-25T05:45:34.045Z,61.53
2019-04-25T05:48:21.945Z,61.05
2019-04-25T05:51:09.385Z,60.88
2019-04-25T05:56:53.659Z,60.99
2019-04-25T05:59:41.659Z,59.96
2019-04-25T06:02:29.095Z,59.75
2019-04-25T06:08:54.215Z,60.18
2019-04-25T06:14:40.456Z,58.89
2019-04-25T06:17:47.089Z,59.09
2019-04-25T06:20:38.668Z,58.91
2019-04-25T06:23:47.014Z,58.04
2019-04-25T06:29:34.860Z,58.33
2019-04-25T06:32:24.940Z,57.95
2019-04-25T06:35:14.326Z,57.72
2019-04-25T06:38:03.587Z,57.60
2019-04-25T06:43:51.989Z,57.55
2019-04-25T06:47:00.367Z,57.17
2019-04-25T06:49:47.867Z,57.28
2019-04-25T06:55:29.107Z,56.78
2019-04-25T06:58:16.814Z,57.40
2019-04-25T07:01:04.384Z,56.76
2019-04-25T07:03:53.889Z,56.28
2019-04-25T07:06:43.471Z,56.67
2019-04-25T07:09:34.938Z,55.74
2019-04-25T07:12:26.571Z,55.62
2019-04-25T07:15:14.769Z,53.98
2019-04-25T07:18:03.817Z,54.48
2019-04-25T07:20:53.361Z,53.20
2019-04-25T07:23:34.743Z,52.78
2019-04-25T07:32:50.158Z,51.14
2019-04-25T07:35:35.758Z,50.68
2019-04-25T07:38:23.813Z,50.62
2019-04-25T07:41:14.716Z,50.68
2019-04-25T07:44:04.278Z,50.42
2019-04-25T07:46:54.327Z,50.11
2019-04-25T07:49:43.261Z,50.57
2019-04-25T07:52:33.234Z,50.27
2019-04-25T07:55:20.940Z,49.91
2019-04-25T07:58:37.806Z,49.71
2019-04-25T08:01:18.947Z,49.21
2019-04-25T08:04:11.589Z,49.07
2019-04-25T08:06:58.991Z,48.79
2019-04-25T08:09:46.889Z,48.59
2019-04-25T08:12:38.237Z,48.46
2019-04-25T08:15:45.421Z,48.27
2019-04-25T08:18:32.885Z,48.18
2019-04-25T08:21:23.925Z,47.13
2019-04-25T08:24:13.867Z,47.31
2019-04-25T08:27:14.589Z,47.69
2019-04-25T08:30:04.409Z,48.20
2019-04-25T08:32:54.258Z,47.60
2019-04-25T08:36:02.509Z,47.72
2019-04-25T08:38:33.778Z,47.61
2019-04-25T08:41:21.697Z,47.28
2019-04-25T08:44:14.173Z,47.44
2019-04-25T08:47:04.481Z,47.64
2019-04-25T08:50:24.617Z,47.35
2019-04-25T08:53:00.317Z,46.66
2019-04-25T08:56:06.686Z,46.47
2019-04-25T09:02:03.389Z,46.96
2019-04-25T09:05:09.886Z,47.15
2019-04-25T09:07:57.488Z,46.48
2019-04-25T09:10:45.155Z,46.32
2019-04-25T09:13:35.386Z,46.01
2019-04-25T09:16:23.822Z,45.50
2019-04-25T09:19:14.325Z,45.32
2019-04-25T09:22:08.897Z,45.54
2019-04-25T09:25:00.666Z,45.42
2019-04-25T09:27:48.291Z,43.57
2019-04-25T09:30:36.854Z,42.91
2019-04-25T09:33:24.707Z,43.15
2019-04-25T09:36:14.110Z,42.69
2019-04-25T09:42:00.750Z,43.08
2019-04-25T09:45:03.651Z,43.85
2019-04-25T09:51:05.626Z,43.67
2019-04-25T09:57:25.006Z,43.50
2019-04-25T10:03:14.058Z,43.22
2019-04-25T10:06:03.302Z,43.30
2019-04-25T10:12:00.196Z,44.05
2019-04-25T10:14:49.163Z,42.12
2019-04-25T10:20:50.742Z,42.39
2019-04-25T10:23:38.314Z,42.74
2019-04-25T10:26:26.882Z,43.20
2019-04-25T10:29:16.420Z,43.26
2019-04-25T10:31:57.604Z,43.37
2019-04-25T10:34:46.110Z,42.93
2019-04-25T10:37:35.307Z,42.81
2019-04-25T10:40:20.664Z,44.30
2019-04-25T10:43:10.357Z,42.98
2019-04-25T10:48:42.582Z,42.68
2019-04-25T10:51:34.124Z,43.32
2019-04-25T10:54:22.360Z,42.89
2019-04-25T10:57:09.896Z,43.00
2019-04-25T11:00:06.519Z,43.10
2019-04-25T11:02:47.504Z,43.12
2019-04-25T11:05:36.316Z,43.05
2019-04-25T11:08:24.728Z,42.22
2019-04-25T11:11:15.273Z,41.67
2019-04-25T11:14:07.582Z,41.27
2019-04-25T11:16:55.349Z,40.52
2019-04-25T11:19:44.978Z,40.42
2019-04-25T11:22:26.135Z,40.68
2019-04-25T11:25:34.161Z,40.87
2019-04-25T11:31:10.801Z,39.63
2019-04-25T11:37:25.489Z,39.19
2019-04-25T11:40:31.840Z,37.86
2019-04-25T11:49:04.462Z,37.29
2019-04-25T11:51:53.132Z,37.29
2019-04-25T11:55:00.062Z,37.52
2019-04-25T11:57:49.912Z,38.12
2019-04-25T12:00:37.006Z,37.45
2019-04-25T12:03:25.725Z,37.02
2019-04-25T12:06:14.154Z,36.76
2019-04-25T12:09:04.118Z,35.93
2019-04-25T12:11:52.814Z,34.74
2019-04-25T12:14:41.061Z,33.00
2019-04-25T12:17:23.352Z,32.74
2019-04-25T12:20:12.025Z,31.92
2019-04-25T12:23:08.325Z,31.40
2019-04-25T12:25:49.801Z,31.94
2019-04-25T12:28:38.537Z,30.67
2019-04-25T12:31:29.007Z,30.69
2019-04-25T12:34:16.427Z,30.65
2019-04-25T12:37:04.054Z,29.65
2019-04-25T12:42:46.384Z,29.03
2019-04-25T12:45:56.143Z,28.35
2019-04-25T12:48:46.014Z,28.04
2019-04-25T12:51:34.251Z,27.65
2019-04-25T12:57:48.151Z,27.48
2019-04-25T13:00:47.539Z,27.10
2019-04-25T13:03:24.987Z,26.45
2019-04-25T13:06:13.703Z,26.37
2019-04-25T13:11:46.194Z,27.33
2019-04-25T13:14:34.073Z,28.16
2019-04-25T13:17:23.973Z,28.34
2019-04-25T13:20:05.631Z,28.85
2019-04-25T13:22:53.358Z,29.35
2019-04-25T13:25:40.927Z,29.77
2019-04-25T13:28:47.258Z,29.29
2019-04-25T13:31:53.627Z,29.57
2019-04-25T13:34:37.648Z,29.75
2019-04-25T13:40:51.570Z,30.13
2019-04-25T13:43:39.887Z,30.43
2019-04-25T13:49:20.392Z,30.20
2019-04-25T13:52:08.543Z,29.89
2019-04-25T13:54:56.341Z,29.08
2019-04-25T13:58:04.176Z,28.37
2019-04-25T14:03:58.174Z,28.65
2019-04-25T14:06:45.875Z,29.23
2019-04-25T14:09:34.756Z,28.71
2019-04-25T14:12:27.594Z,29.10
2019-04-25T14:21:19.481Z,28.40
2019-04-25T14:24:30.300Z,27.74
2019-04-25T14:27:16.435Z,27.99
2019-04-25T14:30:04.404Z,27.47
2019-04-25T14:32:54.079Z,28.57
2019-04-25T14:35:41.560Z,27.86
2019-04-25T14:38:29.900Z,28.79
2019-04-25T14:41:17.584Z,29.65
2019-04-25T14:44:05.893Z,29.70
2019-04-25T14:46:53.424Z,29.85
2019-04-25T14:49:41.013Z,29.87
2019-04-25T14:52:29.071Z,30.25
2019-04-25T14:55:35.547Z,30.55
2019-04-25T15:01:43.988Z,31.04
2019-04-25T15:04:21.869Z,31.16
2019-04-25T15:07:09.328Z,31.02
2019-04-25T15:09:57.178Z,31.46
2019-04-25T15:12:37.764Z,32.24
2019-04-25T15:15:44.550Z,31.74
2019-04-25T15:18:36.632Z,31.77
2019-04-25T15:21:21.695Z,31.72
2019-04-25T15:24:09.184Z,31.38
2019-04-25T15:27:02.032Z,32.10
2019-04-25T15:29:49.499Z,32.54
2019-04-25T15:32:39.281Z,32.22
2019-04-25T15:38:48.227Z,32.40
2019-04-25T15:41:54.623Z,32.70
2019-04-25T15:45:00.997Z,32.17
2019-04-25T15:50:57.371Z,31.80
2019-04-25T15:53:44.856Z,32.33
2019-04-25T15:59:29.542Z,32.13
2019-04-25T16:02:17.872Z,32.60
2019-04-25T16:05:07.069Z,32.53
2019-04-25T16:07:54.644Z,33.02
2019-04-25T16:10:42.992Z,32.63
2019-04-25T16:13:49.341Z,33.75
2019-04-25T16:16:38.359Z,32.92
2019-04-25T16:19:28.238Z,33.31
2019-04-25T16:22:18.067Z,33.45
2019-04-25T16:25:05.566Z,33.60
2019-04-25T16:27:53.390Z,33.91
2019-04-25T16:30:43.899Z,33.35
2019-04-25T16:33:31.424Z,33.25
2019-04-25T16:36:18.890Z,33.60
2019-04-25T16:39:00.124Z,33.99
2019-04-25T16:41:47.710Z,33.99
2019-04-25T16:44:29.952Z,35.59
2019-04-25T16:50:14.825Z,35.84
2019-04-25T16:53:02.367Z,34.33
2019-04-25T16:55:53.062Z,33.74
2019-04-25T16:58:40.810Z,33.74
2019-04-25T17:01:23.172Z,33.64
2019-04-25T17:04:09.689Z,33.48
2019-04-25T17:06:51.068Z,33.54
2019-04-25T17:09:38.930Z,34.84
2019-04-25T17:12:26.675Z,34.14
2019-04-25T17:15:32.936Z,34.38
2019-04-25T17:18:24.314Z,34.76
2019-04-25T17:21:12.450Z,34.74
2019-04-25T17:23:59.948Z,35.89
2019-04-25T17:26:47.854Z,36.21
2019-04-25T17:29:35.630Z,36.02
2019-04-25T17:32:50.355Z,36.47
2019-04-25T17:38:51.494Z,37.45
2019-04-25T17:41:40.495Z,37.65
2019-04-25T17:44:31.653Z,37.97
2019-04-25T17:47:20.183Z,38.44
2019-04-25T17:50:07.750Z,39.28
2019-04-25T17:53:14.170Z,39.96
2019-04-25T17:56:03.487Z,40.52
2019-04-25T17:58:51.233Z,41.42
2019-04-25T18:01:38.892Z,41.16
2019-04-25T18:04:27.199Z,41.86
2019-04-25T18:07:34.159Z,42.69
2019-04-25T18:13:48.700Z,44.05
2019-04-25T18:23:14.259Z,44.52
2019-04-25T18:26:20.951Z,44.85
2019-04-25T18:29:11.522Z,44.56
2019-04-25T18:31:59.283Z,44.56
2019-04-25T18:35:06.016Z,44.25
2019-04-25T18:38:01.300Z,44.97
2019-04-25T18:41:14.398Z,46.05
2019-04-25T18:44:02.007Z,45.86
2019-04-25T18:46:48.945Z,45.83
2019-04-25T18:49:36.369Z,45.78
2019-04-25T18:52:41.337Z,46.52
2019-04-25T18:55:34.135Z,47.91
2019-04-25T18:58:42.572Z,49.96
2019-04-25T19:01:56.553Z,51.96
2019-04-25T19:04:52.823Z,54.01
2019-04-25T19:07:40.961Z,55.74
2019-04-25T19:10:29.018Z,58.09
2019-04-25T19:13:19.088Z,60.13
2019-04-25T19:16:05.641Z,61.23
2019-04-25T19:18:54.596Z,63.10
2019-04-25T19:21:41.648Z,63.86
2019-04-25T19:24:27.944Z,64.06
2019-04-25T19:27:23.567Z,64.25
2019-04-25T19:30:02.371Z,66.34
2019-04-25T19:32:49.152Z,67.15
2019-04-25T19:35:35.179Z,68.70
2019-04-25T19:38:22.089Z,70.32
2019-04-25T19:41:20.154Z,69.38
2019-04-25T19:44:09.297Z,67.95
2019-04-25T19:46:55.604Z,68.42
2019-04-25T19:49:41.676Z,69.32
2019-04-25T19:52:29.618Z,69.08
2019-04-25T19:55:17.025Z,68.87
2019-04-25T19:58:03.324Z,68.75
2019-04-25T20:00:53.299Z,68.85
2019-04-25T20:04:04.424Z,69.55
2019-04-25T20:07:08.055Z,70.86
2019-04-25T20:10:28.496Z,72.67
2019-04-25T20:13:15.066Z,72.55
2019-04-25T20:16:00.958Z,71.88
2019-04-25T20:18:47.728Z,70.31
2019-04-25T20:21:34.030Z,71.57
2019-04-25T20:24:20.924Z,71.11
2019-04-25T20:27:07.081Z,73.28
2019-04-25T20:29:55.101Z,75.42
2019-04-25T20:32:41.055Z,74.79
2019-04-25T20:35:27.541Z,75.32
2019-04-25T20:38:13.632Z,75.13
2019-04-25T20:41:02.809Z,74.29
2019-04-25T20:43:50.728Z,73.55
2019-04-25T20:46:37.289Z,76.22
2019-04-25T20:49:25.367Z,72.91
2019-04-25T20:52:11.338Z,74.26
2019-04-25T20:55:01.692Z,73.18
2019-04-25T20:57:35.850Z,73.76
2019-04-25T21:00:26.725Z,70.73
2019-04-25T21:03:16.065Z,71.70
2019-04-25T21:06:11.213Z,71.68
2019-04-25T21:08:57.630Z,72.07
2019-04-25T21:11:43.802Z,73.94
2019-04-25T21:14:40.693Z,72.83
2019-04-25T21:17:30.157Z,71.04
2019-04-25T21:20:16.234Z,70.64
2019-04-25T21:23:02.355Z,71.69
2019-04-25T21:25:48.593Z,70.79
2019-04-25T21:28:35.768Z,71.03
2019-04-25T21:31:27.952Z,100.00
2019-04-25T21:34:25.397Z,71.37
2019-04-25T21:37:04.053Z,72.44
2019-04-25T21:40:09.617Z,71.12
2019-04-25T21:43:02.353Z,71.12
2019-04-25T21:45:48.667Z,72.12
2019-04-25T21:48:35.373Z,68.96
2019-04-25T21:51:34.549Z,69.49
2019-04-25T21:54:24.733Z,69.23
2019-04-25T21:57:11.217Z,68.90
2019-04-25T22:00:03.129Z,70.09
2019-04-25T22:02:45.111Z,70.07
2019-04-25T22:05:31.550Z,70.89
2019-04-25T22:08:18.092Z,70.41
2019-04-25T22:11:04.573Z,69.66
2019-04-25T22:13:52.205Z,68.75
2019-04-25T22:16:38.413Z,69.40
2019-04-25T22:19:24.761Z,69.68
2019-04-25T22:22:11.154Z,70.44
2019-04-25T22:24:57.288Z,69.58
2019-04-25T22:27:43.722Z,70.44
2019-04-25T22:30:29.689Z,69.32
2019-04-25T22:33:27.720Z,69.60
2019-04-25T22:36:16.313Z,69.37
2019-04-25T22:39:12.617Z,69.43
2019-04-25T22:41:59.761Z,70.38
2019-04-25T22:44:47.229Z,70.78
2019-04-25T22:47:33.352Z,70.35
2019-04-25T22:50:19.682Z,69.85
2019-04-25T22:53:21.070Z,70.22
2019-04-25T22:55:56.542Z,71.08
2019-04-25T22:58:42.662Z,70.97
2019-04-25T23:01:48.944Z,71.19
2019-04-25T23:04:49.324Z,71.86
2019-04-25T23:07:35.527Z,71.66
2019-04-25T23:10:21.899Z,71.82
2019-04-25T23:13:08.815Z,71.79
2019-04-25T23:15:55.043Z,71.90
2019-04-25T23:18:41.387Z,71.03
2019-04-25T23:21:27.644Z,68.97
2019-04-25T23:24:14.727Z,69.34
2019-04-25T23:27:10.830Z,69.57
2019-04-25T23:29:57.089Z,69.35
2019-04-25T23:32:43.482Z,68.93
2019-04-25T23:35:30.560Z,67.47
2019-04-25T23:38:17.354Z,65.78
2019-04-25T23:41:03.503Z,65.07
2019-04-25T23:43:49.797Z,65.92
2019-04-25T23:46:36.028Z,65.82
2019-04-25T23:49:22.132Z,65.76
2019-04-25T23:52:08.662Z,66.06
2019-04-25T23:54:55.391Z,65.21
2019-04-25T23:57:41.920Z,65.49
